Decoded Metar for UWKE (BEGISHEVO in RUSSIA) (IATA:N/A) | Meteo·Mobile Aviation Weather
aviador You're here:

UWKE Decoded Metar

BEGISHEVO in RUSSIA
Report Time2019-12-12 12:30:00
UTC Time2019-12-12 13:03:30
Flight Rules mvfr MVFR
Wind340° at 12 kt
W.Decomp.*RWY 03: 5.4 kt HW 10.7 kt LCW
Visibility9999 m
Phenomena:N/A
Clouds:Overcast 012 Hf
Expected CloudBase > 1,600 ft AGL from Temp-Dew spread
Ceiling1,200 ft
Temp-6°C (ISA -20)
Dew Point-10°C (74% RH)
AAT-13.4°C
QNH1025 hPa
Density Alt-2,165 ft
Elevation643 ft
Report Wrong Elevation
Raw Report
UWKE 121230Z 34006MPS 9999 OVC012 M06/M10 Q1025 R03/190050 NOSIG
RMK QFE751/1002=

Extra information for UWKE:More info

Metar Taf Metar & Taf Last 4 Metars F.Rules Stats Wind Profile Meteogram Temp Stats Airport Information Weather charts Add Link Nearby VenuesMetar ALERT Operation Metar Decoded Social comments